Nearby METAR Reports

 

ENRY - Rygge (nor-Afb), Norway
Distance from station: SØ 12km
Oppdatert: 23/10/2018 23:50
NOT Current
Klart
Klart
 Vind fra NV
Vind: NV 19 km/h
Temperatur: 6°C
Wind Chill: 3°C
Duggpunkt: -5°C
Fuktighet: 46%
Barometer: 1003 hPa
Oversikt: Klart
Visibility: greater than 10 km
2018/10/23 21:50 ENRY 232150Z 31010KT CAVOK 06/M05 Q1003
ENTO - Torp (civ/Nor-Af, Norway
Distance from station: SV 34km
Oppdatert: 24/10/2018 01:20
Klart
Klart
 Vind fra NV
Vind: NV 30 km/h
Temperatur: 6°C
Wind Chill: 2°C
Duggpunkt: -5°C
Fuktighet: 46%
Barometer: 1004 hPa
Clouds: Klart
Visibility: 10 km
2018/10/23 23:20 ENTO 232320Z AUTO 32016KT 9999 NCD 06/M05 Q1004
 
ENNO - Notodden, Norway
Distance from station: V 80km
Oppdatert: 23/10/2018 18:50
NOT Current
Klart
Klart
 Vind fra NV
Vind: NV 17 km/h
Temperatur: 8°C
Wind Chill: 5°C
Duggpunkt: -5°C
Fuktighet: 40%
Barometer: 1001 hPa
Oversikt: Klart
Visibility: greater than 10 km
2018/10/23 16:50 ENNO 231650Z 31009KT 280V020 CAVOK 08/M05 Q1001
ENGM - Oslo/Gardermoen, Norway
Distance from station: NNØ 88km
Oppdatert: 24/10/2018 01:20
Klart
Klart
 Vind fra V
Vind: V 7 km/h
Temperatur: 1°C
Wind Chill: -2°C
Duggpunkt: -5°C
Fuktighet: 65%
Barometer: 1003 hPa
Oversikt: Klart
Visibility: greater than 10 km
2018/10/23 23:20 ENGM 232320Z 27004KT 230V320 CAVOK 01/M05 Q1003
 
ESOK - Karlstad North, Sweden
Distance from station: Ø 153km
Oppdatert: 24/10/2018 01:20
Klart
Klart
 Vind fra NV
Vind: NV 15 km/h
Temperatur: 1°C
Wind Chill: -3°C
Duggpunkt: -2°C
Fuktighet: 81%
Barometer: 1001 hPa
Clouds: Klart
Visibility: 10 km
2018/10/23 23:20 ESOK 232320Z AUTO 31008KT 9999 NCD 01/M02 Q1001
ESST - Torsby, Sweden
Distance from station: ØNØ 154km
Oppdatert: 24/10/2018 01:20
Klart
Klart
 Vind fra varies
Vind: varies 6 km/h
Temperatur: 1°C
Duggpunkt: -3°C
Fuktighet: 75%
Barometer: 1002 hPa
Clouds: Klart
Visibility: 10 km
2018/10/23 23:20 ESST 232320Z AUTO VRB03KT 9999 NCD 01/M03 Q1002
 
ESGT - Trollhattan (pvt, Sweden
Distance from station: SØ 159km
Oppdatert: 24/10/2018 01:20
Klart
Klart
 Vind fra varies
Vind: varies 4 km/h
Temperatur: 2°C
Duggpunkt: -1°C
Fuktighet: 81%
Barometer: 1004 hPa
Clouds: Klart
Visibility: 10 km
2018/10/23 23:20 ESGT 232320Z AUTO VRB02KT 9999 NCD 02/M01 Q1004
ESIB - Satenas (swe-Afb, Sweden
Distance from station: SØ 164km
Oppdatert: 24/10/2018 01:20
Klart
Klart
 Vind fra NV
Vind: NV 19 km/h
Temperatur: 4°C
Wind Chill: 0°C
Duggpunkt: 1°C
Fuktighet: 81%
Barometer: 1003 hPa
Clouds: Klart
Visibility: 10 km
2018/10/23 23:20 ESIB 232320Z AUTO 32010KT 9999 NCD 04/01 Q1003